sensor_id;sensor_type;location;lat;lon;timestamp;temperature;humidity
21834;DHT22;11079;51.092;3.458;2023-06-22T00:01:27;18.40;99.90
21834;DHT22;11079;51.092;3.458;2023-06-22T00:03:53;18.50;99.90
21834;DHT22;11079;51.092;3.458;2023-06-22T00:06:19;18.50;99.90
21834;DHT22;11079;51.092;3.458;2023-06-22T00:08:45;18.50;99.90
21834;DHT22;11079;51.092;3.458;2023-06-22T00:11:11;18.40;99.90
21834;DHT22;11079;51.092;3.458;2023-06-22T00:13:37;18.30;99.90
21834;DHT22;11079;51.092;3.458;2023-06-22T00:16:03;18.30;99.90
21834;DHT22;11079;51.092;3.458;2023-06-22T00:18:28;18.30;99.90
21834;DHT22;11079;51.092;3.458;2023-06-22T00:20:55;18.30;99.90
21834;DHT22;11079;51.092;3.458;2023-06-22T00:23:24;18.30;99.90
21834;DHT22;11079;51.092;3.458;2023-06-22T00:25:50;18.20;99.90
21834;DHT22;11079;51.092;3.458;2023-06-22T00:28:16;18.30;99.90
21834;DHT22;11079;51.092;3.458;2023-06-22T00:30:41;18.20;99.90
21834;DHT22;11079;51.092;3.458;2023-06-22T00:33:07;18.20;99.90
21834;DHT22;11079;51.092;3.458;2023-06-22T00:35:33;18.10;99.90
21834;DHT22;11079;51.092;3.458;2023-06-22T00:38:00;18.10;99.90
21834;DHT22;11079;51.092;3.458;2023-06-22T00:40:27;18.10;99.90
21834;DHT22;11079;51.092;3.458;2023-06-22T00:42:53;18.10;99.90
21834;DHT22;11079;51.092;3.458;2023-06-22T00:45:19;18.00;99.90
21834;DHT22;11079;51.092;3.458;2023-06-22T00:47:45;18.00;99.90
21834;DHT22;11079;51.092;3.458;2023-06-22T00:50:15;18.00;99.90
21834;DHT22;11079;51.092;3.458;2023-06-22T00:52:44;18.00;99.90
21834;DHT22;11079;51.092;3.458;2023-06-22T00:55:12;18.00;99.90
21834;DHT22;11079;51.092;3.458;2023-06-22T00:57:37;17.90;99.90
21834;DHT22;11079;51.092;3.458;2023-06-22T01:00:03;17.80;99.90
21834;DHT22;11079;51.092;3.458;2023-06-22T01:02:34;17.80;99.90
21834;DHT22;11079;51.092;3.458;2023-06-22T01:04:59;17.80;99.90
21834;DHT22;11079;51.092;3.458;2023-06-22T01:07:41;17.80;99.90
21834;DHT22;11079;51.092;3.458;2023-06-22T01:10:19;17.70;99.90
21834;DHT22;11079;51.092;3.458;2023-06-22T01:12:52;17.70;99.90
21834;DHT22;11079;51.092;3.458;2023-06-22T01:15:41;17.70;99.90
21834;DHT22;11079;51.092;3.458;2023-06-22T01:18:09;17.70;99.90
21834;DHT22;11079;51.092;3.458;2023-06-22T01:20:36;17.60;99.90
21834;DHT22;11079;51.092;3.458;2023-06-22T01:25:59;17.60;99.90
21834;DHT22;11079;51.092;3.458;2023-06-22T01:28:48;17.60;99.90
21834;DHT22;11079;51.092;3.458;2023-06-22T01:31:16;17.60;99.90
21834;DHT22;11079;51.092;3.458;2023-06-22T01:33:46;17.50;99.90
21834;DHT22;11079;51.092;3.458;2023-06-22T01:36:14;17.60;99.90
21834;DHT22;11079;51.092;3.458;2023-06-22T01:38:42;17.60;99.90
21834;DHT22;11079;51.092;3.458;2023-06-22T01:41:09;17.60;99.90
21834;DHT22;11079;51.092;3.458;2023-06-22T01:43:35;17.60;99.90
21834;DHT22;11079;51.092;3.458;2023-06-22T01:46:02;17.50;99.90
21834;DHT22;11079;51.092;3.458;2023-06-22T01:48:28;17.30;99.90
21834;DHT22;11079;51.092;3.458;2023-06-22T01:50:54;17.30;99.90
21834;DHT22;11079;51.092;3.458;2023-06-22T01:53:22;17.40;99.90
21834;DHT22;11079;51.092;3.458;2023-06-22T01:55:48;17.40;99.90
21834;DHT22;11079;51.092;3.458;2023-06-22T01:58:13;17.40;99.90
21834;DHT22;11079;51.092;3.458;2023-06-22T02:00:42;17.40;99.90
21834;DHT22;11079;51.092;3.458;2023-06-22T02:03:13;17.30;99.90
21834;DHT22;11079;51.092;3.458;2023-06-22T02:05:50;17.40;99.90
21834;DHT22;11079;51.092;3.458;2023-06-22T02:08:22;17.40;99.90
21834;DHT22;11079;51.092;3.458;2023-06-22T02:10:50;17.40;99.90
21834;DHT22;11079;51.092;3.458;2023-06-22T02:13:17;17.30;99.90
21834;DHT22;11079;51.092;3.458;2023-06-22T02:15:44;17.30;99.90
21834;DHT22;11079;51.092;3.458;2023-06-22T02:18:10;17.30;99.90
21834;DHT22;11079;51.092;3.458;2023-06-22T02:20:37;17.20;99.90
21834;DHT22;11079;51.092;3.458;2023-06-22T02:23:03;17.30;99.90
21834;DHT22;11079;51.092;3.458;2023-06-22T02:25:28;17.30;99.90
21834;DHT22;11079;51.092;3.458;2023-06-22T02:27:54;17.30;99.90
21834;DHT22;11079;51.092;3.458;2023-06-22T02:30:19;17.30;99.90
21834;DHT22;11079;51.092;3.458;2023-06-22T02:32:45;17.20;99.90
21834;DHT22;11079;51.092;3.458;2023-06-22T02:35:11;17.20;99.90
21834;DHT22;11079;51.092;3.458;2023-06-22T02:37:37;17.10;99.90
21834;DHT22;11079;51.092;3.458;2023-06-22T02:40:07;17.10;99.90
21834;DHT22;11079;51.092;3.458;2023-06-22T02:42:35;17.10;99.90
21834;DHT22;11079;51.092;3.458;2023-06-22T02:45:01;17.00;99.90
21834;DHT22;11079;51.092;3.458;2023-06-22T02:47:26;17.00;99.90
21834;DHT22;11079;51.092;3.458;2023-06-22T02:49:52;17.00;99.90
21834;DHT22;11079;51.092;3.458;2023-06-22T02:52:18;17.00;99.90
21834;DHT22;11079;51.092;3.458;2023-06-22T02:54:44;16.90;99.90
21834;DHT22;11079;51.092;3.458;2023-06-22T02:57:12;16.90;99.90
21834;DHT22;11079;51.092;3.458;2023-06-22T02:59:40;16.90;99.90
21834;DHT22;11079;51.092;3.458;2023-06-22T03:02:07;16.90;99.90
21834;DHT22;11079;51.092;3.458;2023-06-22T03:04:34;16.90;99.90
21834;DHT22;11079;51.092;3.458;2023-06-22T03:07:00;16.80;99.90
21834;DHT22;11079;51.092;3.458;2023-06-22T03:09:27;16.90;99.90
21834;DHT22;11079;51.092;3.458;2023-06-22T03:11:55;16.80;99.90
21834;DHT22;11079;51.092;3.458;2023-06-22T03:14:21;16.80;99.90
21834;DHT22;11079;51.092;3.458;2023-06-22T03:16:47;16.90;99.90
21834;DHT22;11079;51.092;3.458;2023-06-22T03:19:13;16.90;99.90
21834;DHT22;11079;51.092;3.458;2023-06-22T03:21:39;16.80;99.90
21834;DHT22;11079;51.092;3.458;2023-06-22T03:24:06;16.70;99.90
21834;DHT22;11079;51.092;3.458;2023-06-22T03:26:32;16.70;99.90
21834;DHT22;11079;51.092;3.458;2023-06-22T03:28:58;16.80;99.90
21834;DHT22;11079;51.092;3.458;2023-06-22T03:31:24;16.80;99.90
21834;DHT22;11079;51.092;3.458;2023-06-22T03:33:50;16.80;99.90
21834;DHT22;11079;51.092;3.458;2023-06-22T03:36:16;16.80;99.90
21834;DHT22;11079;51.092;3.458;2023-06-22T03:38:46;16.90;99.90
21834;DHT22;11079;51.092;3.458;2023-06-22T03:41:13;16.80;99.90
21834;DHT22;11079;51.092;3.458;2023-06-22T03:43:49;16.90;99.90
21834;DHT22;11079;51.092;3.458;2023-06-22T03:46:37;16.90;99.90
21834;DHT22;11079;51.092;3.458;2023-06-22T03:49:03;17.00;99.90
21834;DHT22;11079;51.092;3.458;2023-06-22T03:51:30;17.00;99.90
21834;DHT22;11079;51.092;3.458;2023-06-22T03:53:56;16.90;99.90
21834;DHT22;11079;51.092;3.458;2023-06-22T03:56:21;17.00;99.90
21834;DHT22;11079;51.092;3.458;2023-06-22T03:58:47;17.10;99.90
21834;DHT22;11079;51.092;3.458;2023-06-22T04:01:12;17.10;99.90
21834;DHT22;11079;51.092;3.458;2023-06-22T04:03:38;17.20;99.90
21834;DHT22;11079;51.092;3.458;2023-06-22T04:06:04;17.30;99.90
21834;DHT22;11079;51.092;3.458;2023-06-22T04:08:30;17.50;99.90
21834;DHT22;11079;51.092;3.458;2023-06-22T04:10:55;17.40;99.90
21834;DHT22;11079;51.092;3.458;2023-06-22T04:13:22;17.40;99.90
21834;DHT22;11079;51.092;3.458;2023-06-22T04:15:47;17.60;99.90
21834;DHT22;11079;51.092;3.458;2023-06-22T04:18:13;17.60;99.90
21834;DHT22;11079;51.092;3.458;2023-06-22T04:20:39;17.70;99.90
21834;DHT22;11079;51.092;3.458;2023-06-22T04:23:04;17.80;99.90
21834;DHT22;11079;51.092;3.458;2023-06-22T04:25:30;17.80;99.90
21834;DHT22;11079;51.092;3.458;2023-06-22T04:27:56;17.80;99.90
21834;DHT22;11079;51.092;3.458;2023-06-22T04:30:21;17.80;99.90
21834;DHT22;11079;51.092;3.458;2023-06-22T04:32:47;17.90;99.90
21834;DHT22;11079;51.092;3.458;2023-06-22T04:35:25;18.00;99.90
21834;DHT22;11079;51.092;3.458;2023-06-22T04:37:52;18.20;99.90
21834;DHT22;11079;51.092;3.458;2023-06-22T04:40:23;18.40;99.90
21834;DHT22;11079;51.092;3.458;2023-06-22T04:42:50;18.50;99.90
21834;DHT22;11079;51.092;3.458;2023-06-22T04:45:19;18.60;99.90
21834;DHT22;11079;51.092;3.458;2023-06-22T04:47:45;18.90;99.90
21834;DHT22;11079;51.092;3.458;2023-06-22T04:50:14;19.10;99.90
21834;DHT22;11079;51.092;3.458;2023-06-22T04:52:42;19.60;99.90
21834;DHT22;11079;51.092;3.458;2023-06-22T04:55:07;20.40;99.90
21834;DHT22;11079;51.092;3.458;2023-06-22T04:57:34;21.10;99.90
21834;DHT22;11079;51.092;3.458;2023-06-22T05:00:00;21.90;99.90
21834;DHT22;11079;51.092;3.458;2023-06-22T05:02:39;22.50;99.90
21834;DHT22;11079;51.092;3.458;2023-06-22T05:05:05;23.20;99.90
21834;DHT22;11079;51.092;3.458;2023-06-22T05:07:35;23.80;99.90
21834;DHT22;11079;51.092;3.458;2023-06-22T05:10:03;24.30;99.90
21834;DHT22;11079;51.092;3.458;2023-06-22T05:12:30;24.60;99.90
21834;DHT22;11079;51.092;3.458;2023-06-22T05:14:56;25.30;99.90
21834;DHT22;11079;51.092;3.458;2023-06-22T05:17:22;25.90;99.90
21834;DHT22;11079;51.092;3.458;2023-06-22T05:19:48;26.50;99.90
21834;DHT22;11079;51.092;3.458;2023-06-22T05:22:15;26.90;99.90
21834;DHT22;11079;51.092;3.458;2023-06-22T05:24:41;27.00;99.90
21834;DHT22;11079;51.092;3.458;2023-06-22T05:27:07;26.90;99.90
21834;DHT22;11079;51.092;3.458;2023-06-22T05:29:33;26.40;99.90
21834;DHT22;11079;51.092;3.458;2023-06-22T05:31:58;25.80;99.90
21834;DHT22;11079;51.092;3.458;2023-06-22T05:34:24;25.30;99.90
21834;DHT22;11079;51.092;3.458;2023-06-22T05:36:49;24.80;99.90
21834;DHT22;11079;51.092;3.458;2023-06-22T05:39:15;24.40;99.90
21834;DHT22;11079;51.092;3.458;2023-06-22T05:41:41;24.20;99.90
21834;DHT22;11079;51.092;3.458;2023-06-22T05:44:08;24.10;99.90
21834;DHT22;11079;51.092;3.458;2023-06-22T05:46:34;24.20;99.90
21834;DHT22;11079;51.092;3.458;2023-06-22T05:49:00;24.40;99.90
21834;DHT22;11079;51.092;3.458;2023-06-22T05:51:25;24.80;99.90
21834;DHT22;11079;51.092;3.458;2023-06-22T05:53:51;25.10;99.90
21834;DHT22;11079;51.092;3.458;2023-06-22T05:56:17;25.20;99.90
21834;DHT22;11079;51.092;3.458;2023-06-22T05:58:42;25.10;99.90
21834;DHT22;11079;51.092;3.458;2023-06-22T06:01:08;25.30;99.90
21834;DHT22;11079;51.092;3.458;2023-06-22T06:03:34;25.70;99.90
21834;DHT22;11079;51.092;3.458;2023-06-22T06:05:59;25.70;99.90
21834;DHT22;11079;51.092;3.458;2023-06-22T06:08:27;25.90;99.90
21834;DHT22;11079;51.092;3.458;2023-06-22T06:10:53;26.10;99.90
21834;DHT22;11079;51.092;3.458;2023-06-22T06:13:20;26.20;99.90
21834;DHT22;11079;51.092;3.458;2023-06-22T06:15:46;26.20;99.90
21834;DHT22;11079;51.092;3.458;2023-06-22T06:18:11;25.90;99.90
21834;DHT22;11079;51.092;3.458;2023-06-22T06:20:37;25.70;99.90
21834;DHT22;11079;51.092;3.458;2023-06-22T06:23:03;25.50;99.90
21834;DHT22;11079;51.092;3.458;2023-06-22T06:25:28;25.30;99.90
21834;DHT22;11079;51.092;3.458;2023-06-22T06:27:54;25.20;99.90
21834;DHT22;11079;51.092;3.458;2023-06-22T06:30:20;25.10;99.90
21834;DHT22;11079;51.092;3.458;2023-06-22T06:32:46;25.20;99.90
21834;DHT22;11079;51.092;3.458;2023-06-22T06:35:13;25.30;99.90
21834;DHT22;11079;51.092;3.458;2023-06-22T06:37:42;25.40;99.90
21834;DHT22;11079;51.092;3.458;2023-06-22T06:40:09;25.40;99.90
21834;DHT22;11079;51.092;3.458;2023-06-22T06:42:46;25.40;99.90
21834;DHT22;11079;51.092;3.458;2023-06-22T06:45:12;25.50;99.90
21834;DHT22;11079;51.092;3.458;2023-06-22T06:47:39;25.50;99.90
21834;DHT22;11079;51.092;3.458;2023-06-22T06:50:05;25.50;99.90
21834;DHT22;11079;51.092;3.458;2023-06-22T06:52:31;25.40;99.90
21834;DHT22;11079;51.092;3.458;2023-06-22T06:54:57;25.50;99.90
21834;DHT22;11079;51.092;3.458;2023-06-22T06:57:22;25.80;99.90
21834;DHT22;11079;51.092;3.458;2023-06-22T06:59:48;26.10;99.90
21834;DHT22;11079;51.092;3.458;2023-06-22T07:02:15;26.60;99.90
21834;DHT22;11079;51.092;3.458;2023-06-22T07:04:41;26.90;99.90
21834;DHT22;11079;51.092;3.458;2023-06-22T07:07:07;27.10;99.90
21834;DHT22;11079;51.092;3.458;2023-06-22T07:09:32;27.20;99.90
21834;DHT22;11079;51.092;3.458;2023-06-22T07:11:58;27.70;99.90
21834;DHT22;11079;51.092;3.458;2023-06-22T07:14:25;28.10;99.90
21834;DHT22;11079;51.092;3.458;2023-06-22T07:16:50;28.50;99.90
21834;DHT22;11079;51.092;3.458;2023-06-22T07:19:16;28.70;99.90
21834;DHT22;11079;51.092;3.458;2023-06-22T07:21:41;29.20;99.90
21834;DHT22;11079;51.092;3.458;2023-06-22T07:24:07;29.40;99.90
21834;DHT22;11079;51.092;3.458;2023-06-22T07:26:33;29.90;99.90
21834;DHT22;11079;51.092;3.458;2023-06-22T07:28:59;30.30;99.90
21834;DHT22;11079;51.092;3.458;2023-06-22T07:31:25;30.70;99.90
21834;DHT22;11079;51.092;3.458;2023-06-22T07:33:51;30.80;99.90
21834;DHT22;11079;51.092;3.458;2023-06-22T07:36:17;31.00;99.90
21834;DHT22;11079;51.092;3.458;2023-06-22T07:38:43;31.10;99.90
21834;DHT22;11079;51.092;3.458;2023-06-22T07:41:09;31.30;99.90
21834;DHT22;11079;51.092;3.458;2023-06-22T07:43:34;31.10;99.90
21834;DHT22;11079;51.092;3.458;2023-06-22T07:46:03;30.70;99.90
21834;DHT22;11079;51.092;3.458;2023-06-22T07:48:28;30.10;99.90
21834;DHT22;11079;51.092;3.458;2023-06-22T07:50:54;29.80;99.90
21834;DHT22;11079;51.092;3.458;2023-06-22T07:53:21;29.70;99.90
21834;DHT22;11079;51.092;3.458;2023-06-22T07:55:47;29.60;99.90
21834;DHT22;11079;51.092;3.458;2023-06-22T07:58:13;29.60;99.90
21834;DHT22;11079;51.092;3.458;2023-06-22T08:00:39;29.40;99.90
21834;DHT22;11079;51.092;3.458;2023-06-22T08:03:04;29.30;99.90
21834;DHT22;11079;51.092;3.458;2023-06-22T08:05:31;29.10;99.90
21834;DHT22;11079;51.092;3.458;2023-06-22T08:07:57;29.00;99.90
21834;DHT22;11079;51.092;3.458;2023-06-22T08:10:22;28.90;99.90
21834;DHT22;11079;51.092;3.458;2023-06-22T08:12:48;28.70;99.90
21834;DHT22;11079;51.092;3.458;2023-06-22T08:15:14;28.50;99.90
21834;DHT22;11079;51.092;3.458;2023-06-22T08:17:40;28.00;99.90
21834;DHT22;11079;51.092;3.458;2023-06-22T08:20:06;27.80;99.90
21834;DHT22;11079;51.092;3.458;2023-06-22T08:22:35;27.50;99.90
21834;DHT22;11079;51.092;3.458;2023-06-22T08:25:02;27.40;99.90
21834;DHT22;11079;51.092;3.458;2023-06-22T08:27:30;27.30;99.90
21834;DHT22;11079;51.092;3.458;2023-06-22T08:29:57;27.10;99.90
21834;DHT22;11079;51.092;3.458;2023-06-22T08:32:25;27.00;99.90
21834;DHT22;11079;51.092;3.458;2023-06-22T08:34:55;26.70;99.90
21834;DHT22;11079;51.092;3.458;2023-06-22T08:37:21;26.70;99.90
21834;DHT22;11079;51.092;3.458;2023-06-22T08:39:50;26.80;99.90
21834;DHT22;11079;51.092;3.458;2023-06-22T08:42:16;26.90;99.90
21834;DHT22;11079;51.092;3.458;2023-06-22T08:44:41;26.80;99.90
21834;DHT22;11079;51.092;3.458;2023-06-22T08:47:07;26.70;99.90
21834;DHT22;11079;51.092;3.458;2023-06-22T08:49:33;26.60;99.90
21834;DHT22;11079;51.092;3.458;2023-06-22T08:51:58;26.40;99.90
21834;DHT22;11079;51.092;3.458;2023-06-22T08:54:24;26.20;99.90
21834;DHT22;11079;51.092;3.458;2023-06-22T08:56:50;26.10;99.90
21834;DHT22;11079;51.092;3.458;2023-06-22T08:59:15;26.20;99.90
21834;DHT22;11079;51.092;3.458;2023-06-22T09:01:41;26.10;99.90
21834;DHT22;11079;51.092;3.458;2023-06-22T09:04:11;26.20;99.90
21834;DHT22;11079;51.092;3.458;2023-06-22T09:06:37;26.20;99.90
21834;DHT22;11079;51.092;3.458;2023-06-22T09:09:06;26.20;99.90
21834;DHT22;11079;51.092;3.458;2023-06-22T09:11:32;26.30;99.90
21834;DHT22;11079;51.092;3.458;2023-06-22T09:13:57;26.30;99.90
21834;DHT22;11079;51.092;3.458;2023-06-22T09:16:23;26.40;99.90
21834;DHT22;11079;51.092;3.458;2023-06-22T09:18:49;26.40;99.90
21834;DHT22;11079;51.092;3.458;2023-06-22T09:21:14;26.40;99.90
21834;DHT22;11079;51.092;3.458;2023-06-22T09:23:40;26.40;99.90
21834;DHT22;11079;51.092;3.458;2023-06-22T09:26:06;26.40;99.90
21834;DHT22;11079;51.092;3.458;2023-06-22T09:28:32;26.40;99.90
21834;DHT22;11079;51.092;3.458;2023-06-22T09:30:58;26.30;99.90
21834;DHT22;11079;51.092;3.458;2023-06-22T09:33:25;26.20;99.90
21834;DHT22;11079;51.092;3.458;2023-06-22T09:35:51;26.20;99.90
21834;DHT22;11079;51.092;3.458;2023-06-22T09:38:17;26.20;99.90
21834;DHT22;11079;51.092;3.458;2023-06-22T09:40:43;26.10;99.90
21834;DHT22;11079;51.092;3.458;2023-06-22T09:43:08;25.90;99.90
21834;DHT22;11079;51.092;3.458;2023-06-22T09:45:34;26.00;99.90
21834;DHT22;11079;51.092;3.458;2023-06-22T09:48:00;25.90;99.90
21834;DHT22;11079;51.092;3.458;2023-06-22T09:50:27;25.80;99.90
21834;DHT22;11079;51.092;3.458;2023-06-22T09:52:52;25.70;99.90
21834;DHT22;11079;51.092;3.458;2023-06-22T09:55:22;25.50;99.90
21834;DHT22;11079;51.092;3.458;2023-06-22T09:57:48;25.40;99.90
21834;DHT22;11079;51.092;3.458;2023-06-22T10:00:16;25.30;99.90
21834;DHT22;11079;51.092;3.458;2023-06-22T10:02:42;25.20;99.90
21834;DHT22;11079;51.092;3.458;2023-06-22T10:05:08;25.20;99.90
21834;DHT22;11079;51.092;3.458;2023-06-22T10:07:34;25.30;99.90
21834;DHT22;11079;51.092;3.458;2023-06-22T10:09:59;25.30;99.90
21834;DHT22;11079;51.092;3.458;2023-06-22T10:12:27;25.40;99.90
21834;DHT22;11079;51.092;3.458;2023-06-22T10:14:53;25.40;99.90
21834;DHT22;11079;51.092;3.458;2023-06-22T10:17:18;25.40;99.90
21834;DHT22;11079;51.092;3.458;2023-06-22T10:19:56;25.40;99.90
21834;DHT22;11079;51.092;3.458;2023-06-22T10:22:22;25.30;99.90
21834;DHT22;11079;51.092;3.458;2023-06-22T10:24:48;25.20;99.90
21834;DHT22;11079;51.092;3.458;2023-06-22T10:27:13;25.20;99.90
21834;DHT22;11079;51.092;3.458;2023-06-22T10:29:39;25.20;99.90
21834;DHT22;11079;51.092;3.458;2023-06-22T10:32:05;25.10;99.90
21834;DHT22;11079;51.092;3.458;2023-06-22T10:34:31;25.10;99.90
21834;DHT22;11079;51.092;3.458;2023-06-22T10:36:57;25.20;99.90
21834;DHT22;11079;51.092;3.458;2023-06-22T10:39:22;25.10;99.90
21834;DHT22;11079;51.092;3.458;2023-06-22T10:41:48;25.20;99.90
21834;DHT22;11079;51.092;3.458;2023-06-22T10:44:13;25.30;99.90
21834;DHT22;11079;51.092;3.458;2023-06-22T10:46:39;25.40;99.90
21834;DHT22;11079;51.092;3.458;2023-06-22T10:49:05;25.30;99.90
21834;DHT22;11079;51.092;3.458;2023-06-22T10:51:31;25.40;99.90
21834;DHT22;11079;51.092;3.458;2023-06-22T10:53:57;25.50;99.90
21834;DHT22;11079;51.092;3.458;2023-06-22T10:56:24;25.50;99.90
21834;DHT22;11079;51.092;3.458;2023-06-22T10:58:49;25.40;99.90
21834;DHT22;11079;51.092;3.458;2023-06-22T11:01:15;25.30;99.90
21834;DHT22;11079;51.092;3.458;2023-06-22T11:03:40;25.10;99.90
21834;DHT22;11079;51.092;3.458;2023-06-22T11:06:06;25.00;99.90
21834;DHT22;11079;51.092;3.458;2023-06-22T11:08:32;24.90;99.90
21834;DHT22;11079;51.092;3.458;2023-06-22T11:10:57;24.80;99.90
21834;DHT22;11079;51.092;3.458;2023-06-22T11:13:23;24.80;99.90
21834;DHT22;11079;51.092;3.458;2023-06-22T11:15:48;24.80;99.90
21834;DHT22;11079;51.092;3.458;2023-06-22T11:18:14;24.80;99.90
21834;DHT22;11079;51.092;3.458;2023-06-22T11:20:40;25.00;99.90
21834;DHT22;11079;51.092;3.458;2023-06-22T11:23:06;25.10;99.90
21834;DHT22;11079;51.092;3.458;2023-06-22T11:25:32;25.10;99.90
21834;DHT22;11079;51.092;3.458;2023-06-22T11:28:03;25.30;99.90
21834;DHT22;11079;51.092;3.458;2023-06-22T11:30:29;25.40;99.90
21834;DHT22;11079;51.092;3.458;2023-06-22T11:32:56;25.50;99.90
21834;DHT22;11079;51.092;3.458;2023-06-22T11:35:21;25.60;99.90
21834;DHT22;11079;51.092;3.458;2023-06-22T11:37:47;25.80;99.90
21834;DHT22;11079;51.092;3.458;2023-06-22T11:40:13;25.90;99.90
21834;DHT22;11079;51.092;3.458;2023-06-22T11:42:38;25.80;99.90
21834;DHT22;11079;51.092;3.458;2023-06-22T11:45:08;25.80;99.90
21834;DHT22;11079;51.092;3.458;2023-06-22T11:47:34;25.60;99.90
21834;DHT22;11079;51.092;3.458;2023-06-22T11:50:00;25.30;99.90
21834;DHT22;11079;51.092;3.458;2023-06-22T11:52:26;25.30;99.90
21834;DHT22;11079;51.092;3.458;2023-06-22T11:54:52;25.20;99.90
21834;DHT22;11079;51.092;3.458;2023-06-22T11:57:18;25.10;99.90
21834;DHT22;11079;51.092;3.458;2023-06-22T11:59:43;25.10;99.90
21834;DHT22;11079;51.092;3.458;2023-06-22T12:02:09;25.10;99.90
21834;DHT22;11079;51.092;3.458;2023-06-22T12:04:35;25.20;99.90
21834;DHT22;11079;51.092;3.458;2023-06-22T12:07:00;25.20;99.90
21834;DHT22;11079;51.092;3.458;2023-06-22T12:09:26;25.20;99.90
21834;DHT22;11079;51.092;3.458;2023-06-22T12:11:52;25.30;99.90
21834;DHT22;11079;51.092;3.458;2023-06-22T12:14:17;25.40;99.90
21834;DHT22;11079;51.092;3.458;2023-06-22T12:16:43;25.40;99.90
21834;DHT22;11079;51.092;3.458;2023-06-22T12:19:09;25.50;99.90
21834;DHT22;11079;51.092;3.458;2023-06-22T12:21:37;25.50;99.90
21834;DHT22;11079;51.092;3.458;2023-06-22T12:24:03;25.50;99.90
21834;DHT22;11079;51.092;3.458;2023-06-22T12:26:29;25.50;99.90
21834;DHT22;11079;51.092;3.458;2023-06-22T12:28:54;25.50;99.90
21834;DHT22;11079;51.092;3.458;2023-06-22T12:31:20;25.60;99.90
21834;DHT22;11079;51.092;3.458;2023-06-22T12:33:45;25.70;99.90
21834;DHT22;11079;51.092;3.458;2023-06-22T12:36:11;25.80;99.90
21834;DHT22;11079;51.092;3.458;2023-06-22T12:38:36;25.80;99.90
21834;DHT22;11079;51.092;3.458;2023-06-22T12:41:03;25.80;99.90
21834;DHT22;11079;51.092;3.458;2023-06-22T12:43:29;25.90;99.90
21834;DHT22;11079;51.092;3.458;2023-06-22T12:45:54;26.00;99.90
21834;DHT22;11079;51.092;3.458;2023-06-22T12:48:21;26.10;99.90
21834;DHT22;11079;51.092;3.458;2023-06-22T12:50:47;26.20;99.90
21834;DHT22;11079;51.092;3.458;2023-06-22T12:53:13;26.20;99.90
21834;DHT22;11079;51.092;3.458;2023-06-22T12:55:39;26.30;99.90
21834;DHT22;11079;51.092;3.458;2023-06-22T12:58:04;26.30;99.90
21834;DHT22;11079;51.092;3.458;2023-06-22T13:00:30;26.40;99.90
21834;DHT22;11079;51.092;3.458;2023-06-22T13:02:55;26.50;99.90
21834;DHT22;11079;51.092;3.458;2023-06-22T13:05:21;26.50;99.90
21834;DHT22;11079;51.092;3.458;2023-06-22T13:07:47;26.50;99.90
21834;DHT22;11079;51.092;3.458;2023-06-22T13:10:12;26.60;99.90
21834;DHT22;11079;51.092;3.458;2023-06-22T13:12:38;26.70;99.90
21834;DHT22;11079;51.092;3.458;2023-06-22T13:15:05;26.50;99.90
21834;DHT22;11079;51.092;3.458;2023-06-22T13:17:31;26.20;99.90
21834;DHT22;11079;51.092;3.458;2023-06-22T13:19:57;25.90;99.90
21834;DHT22;11079;51.092;3.458;2023-06-22T13:24:54;25.60;99.90
21834;DHT22;11079;51.092;3.458;2023-06-22T13:27:20;25.50;99.90
21834;DHT22;11079;51.092;3.458;2023-06-22T13:29:46;25.20;99.90
21834;DHT22;11079;51.092;3.458;2023-06-22T13:32:11;24.90;99.90
21834;DHT22;11079;51.092;3.458;2023-06-22T13:34:37;24.80;99.90
21834;DHT22;11079;51.092;3.458;2023-06-22T13:37:02;24.70;99.90
21834;DHT22;11079;51.092;3.458;2023-06-22T13:39:28;24.80;99.90
21834;DHT22;11079;51.092;3.458;2023-06-22T13:41:54;24.80;99.90
21834;DHT22;11079;51.092;3.458;2023-06-22T13:44:19;24.90;99.90
21834;DHT22;11079;51.092;3.458;2023-06-22T13:46:46;24.90;99.90
21834;DHT22;11079;51.092;3.458;2023-06-22T13:49:12;25.00;99.90
21834;DHT22;11079;51.092;3.458;2023-06-22T13:51:38;25.10;99.90
21834;DHT22;11079;51.092;3.458;2023-06-22T13:54:03;25.20;99.90
21834;DHT22;11079;51.092;3.458;2023-06-22T13:56:29;25.10;99.90
21834;DHT22;11079;51.092;3.458;2023-06-22T13:58:55;24.90;99.90
21834;DHT22;11079;51.092;3.458;2023-06-22T14:01:21;25.10;99.90
21834;DHT22;11079;51.092;3.458;2023-06-22T14:03:48;25.00;99.90
21834;DHT22;11079;51.092;3.458;2023-06-22T14:06:13;25.00;99.90
21834;DHT22;11079;51.092;3.458;2023-06-22T14:08:39;25.30;99.90
21834;DHT22;11079;51.092;3.458;2023-06-22T14:11:05;25.60;99.90
21834;DHT22;11079;51.092;3.458;2023-06-22T14:13:30;25.80;99.90
21834;DHT22;11079;51.092;3.458;2023-06-22T14:15:56;26.10;99.90
21834;DHT22;11079;51.092;3.458;2023-06-22T14:18:21;26.20;99.90
21834;DHT22;11079;51.092;3.458;2023-06-22T14:20:50;26.40;99.90
21834;DHT22;11079;51.092;3.458;2023-06-22T14:23:15;26.60;99.90
21834;DHT22;11079;51.092;3.458;2023-06-22T14:25:41;26.60;99.90
21834;DHT22;11079;51.092;3.458;2023-06-22T14:28:06;26.40;99.90
21834;DHT22;11079;51.092;3.458;2023-06-22T14:30:32;26.20;99.90
21834;DHT22;11079;51.092;3.458;2023-06-22T14:32:58;26.00;99.90
21834;DHT22;11079;51.092;3.458;2023-06-22T14:35:23;26.00;99.90
21834;DHT22;11079;51.092;3.458;2023-06-22T14:37:50;26.20;99.90
21834;DHT22;11079;51.092;3.458;2023-06-22T14:40:15;26.50;99.90
21834;DHT22;11079;51.092;3.458;2023-06-22T14:42:41;26.70;99.90
21834;DHT22;11079;51.092;3.458;2023-06-22T14:45:07;26.50;99.90
21834;DHT22;11079;51.092;3.458;2023-06-22T14:47:32;26.40;99.90
21834;DHT22;11079;51.092;3.458;2023-06-22T14:49:58;26.50;99.90
21834;DHT22;11079;51.092;3.458;2023-06-22T14:52:25;26.70;99.90
21834;DHT22;11079;51.092;3.458;2023-06-22T14:54:51;26.70;99.90
21834;DHT22;11079;51.092;3.458;2023-06-22T14:57:18;26.50;99.90
21834;DHT22;11079;51.092;3.458;2023-06-22T14:59:46;26.40;99.90
21834;DHT22;11079;51.092;3.458;2023-06-22T15:02:12;26.30;99.90
21834;DHT22;11079;51.092;3.458;2023-06-22T15:04:38;26.30;99.90
21834;DHT22;11079;51.092;3.458;2023-06-22T15:07:03;26.10;99.90
21834;DHT22;11079;51.092;3.458;2023-06-22T15:09:29;25.90;99.90
21834;DHT22;11079;51.092;3.458;2023-06-22T15:11:55;25.90;99.90
21834;DHT22;11079;51.092;3.458;2023-06-22T15:14:20;25.80;99.90
21834;DHT22;11079;51.092;3.458;2023-06-22T15:16:46;25.40;99.90
21834;DHT22;11079;51.092;3.458;2023-06-22T15:19:11;25.10;99.90
21834;DHT22;11079;51.092;3.458;2023-06-22T15:21:38;24.90;99.90
21834;DHT22;11079;51.092;3.458;2023-06-22T15:24:04;24.80;99.90
21834;DHT22;11079;51.092;3.458;2023-06-22T15:26:29;24.80;99.90
21834;DHT22;11079;51.092;3.458;2023-06-22T15:28:55;24.70;99.90
21834;DHT22;11079;51.092;3.458;2023-06-22T15:31:21;24.50;99.90